Terminal Aerodrome Forecast
Issued by NWS Paducah, KY

Home | Current Version | Previous Version | Text Only | Print | Product List | Glossary Off
Versions: 1 2 3 4 5 6 7 8 9 10 11 12 13 14 15 16

000
FTUS43 KPAH 230729 AAA
TAFEVV
TAF AMD
KEVV 230729Z 2307/2406 18010KT P6SM -SHRA BKN015
     FM231000 19007KT 5SM -SHRA BR VCTS OVC015CB
     FM231400 18008KT 3SM +SHRA OVC008
     FM232300 33010KT P6SM SCT025 OVC040=

USA.gov is the U.S. government's official web portal to all federal, state and local government web resources and services.